»·PEaware :: N520MJ KRNM-KSBA

N520MJ :: KRNM-KSBA

FLIGHT INFORMATION

Flight Status: Arrived
Operator: Privately registered:
United States
More flights under this callsign
Pilot: Manuel P. (9695)
Aircraft: BOMBARDIER BD-100 CHALLENGER 300
(CL30)
More flights by this aircraft type
Origin: KRNM Ramona
United States
Destination: KSBA Santa Barbara Mun
United States
More flights between these airports :: More routes between these airports
Route: +ROBNN MZB293R V27 SXC V208 VTU VTU282R KWANG
File this flight plan on PilotEdge
Remarks: SANN36 TEC Route (with higher altitude)
Altitude:
(Current/Filed)
26,000ft
Speed:
(Current/Filed)
400kts
Departed: 23-Jul-17 02:12 PM
Arrived: 23-Jul-17 02:49 PM
Distance/Time
Traveled:
168nm/0:37
Distance/Time
To Go:
Arrived

Flight Plot

Page will automatically refresh every two minutes.

Flight plan parsing failed; only flown route is shown


Map Options




Map Legend


Flown Route
Filed Route
Departure Airport
Arrival Airport
Navaid (VOR, NDB)
Fix

Horizontal Profiles

Position Reports

Time Latitude Longitude Heading Altitude Ground
Speed
23-Jul-17 13:44 33.039293 -116.907957 275 1401ft 0kts
23-Jul-17 13:45 33.039293 -116.907957 275 1401ft 0kts
23-Jul-17 13:46 33.039293 -116.907957 275 1401ft 0kts
23-Jul-17 13:47 33.039293 -116.907957 275 1401ft 0kts
23-Jul-17 13:48 33.039293 -116.907957 275 1401ft 0kts
23-Jul-17 13:49 33.039293 -116.907957 275 1401ft 0kts
23-Jul-17 13:50 33.039293 -116.907957 275 1401ft 0kts
23-Jul-17 13:51 33.039293 -116.907957 275 1401ft 0kts
23-Jul-17 13:52 33.039293 -116.907957 275 1401ft 0kts
23-Jul-17 13:53 33.039293 -116.907957 275 1401ft 0kts
23-Jul-17 13:54 33.039293 -116.907957 275 1401ft 0kts
23-Jul-17 13:55 33.039293 -116.907957 275 1401ft 0kts
23-Jul-17 13:56 33.039293 -116.907957 275 1401ft 0kts
23-Jul-17 13:57 33.039293 -116.907957 275 1401ft 0kts
23-Jul-17 13:58 33.039293 -116.907957 275 1401ft 0kts
23-Jul-17 13:59 33.039293 -116.907957 275 1401ft 0kts
23-Jul-17 14:00 33.039293 -116.907957 275 1401ft 0kts
23-Jul-17 14:01 33.039293 -116.907957 275 1401ft 0kts
23-Jul-17 14:02 33.039293 -116.907957 275 1401ft 0kts
23-Jul-17 14:03 33.039293 -116.907957 275 1401ft 0kts
23-Jul-17 14:04 33.039293 -116.907957 275 1401ft 0kts
23-Jul-17 14:05 33.039293 -116.907957 275 1401ft 0kts
23-Jul-17 14:06 33.039293 -116.907957 275 1401ft 0kts
23-Jul-17 14:07 33.039293 -116.907957 275 1401ft 0kts
23-Jul-17 14:08 33.039293 -116.907957 275 1401ft 0kts
23-Jul-17 14:09 33.039293 -116.907957 275 1401ft 0kts
23-Jul-17 14:10 33.039293 -116.907957 275 1401ft 0kts
23-Jul-17 14:11 33.039293 -116.907957 275 1401ft 0kts
23-Jul-17 14:12 33.039302 -116.908075 273 1402ft 0kts
23-Jul-17 14:13 33.038858 -116.908181 129 1402ft 5kts
23-Jul-17 14:14 33.038064 -116.907880 271 1401ft 7kts
23-Jul-17 14:15 33.043152 -116.942915 279 2794ft 200kts
23-Jul-17 14:16 33.082964 -117.015597 326 4980ft 310kts
23-Jul-17 14:17 33.149832 -117.065558 326 5654ft 280kts
23-Jul-17 14:18 33.191502 -117.136102 265 7862ft 285kts
23-Jul-17 14:19 33.168601 -117.223014 224 10060ft 290kts
23-Jul-17 14:20 33.109717 -117.291146 222 12465ft 315kts
23-Jul-17 14:21 33.032495 -117.355767 210 15375ft 380kts
23-Jul-17 14:22 33.003899 -117.468977 297 19295ft 408kts
23-Jul-17 14:23 33.092147 -117.555016 322 22669ft 425kts
23-Jul-17 14:24 33.188008 -117.647699 319 22942ft 446kts
23-Jul-17 14:25 33.272680 -117.752191 288 24130ft 436kts
23-Jul-17 14:26 33.302019 -117.890025 279 25910ft 438kts
23-Jul-17 14:27 33.323976 -118.036196 278 25954ft 467kts
23-Jul-17 14:28 33.344394 -118.186484 277 25949ft 464kts
23-Jul-17 14:29 33.364375 -118.337998 277 26001ft 458kts
23-Jul-17 14:30 33.416455 -118.471632 306 25948ft 451kts
23-Jul-17 14:31 33.493659 -118.587321 308 25911ft 443kts
23-Jul-17 14:32 33.570217 -118.697883 308 25717ft 425kts
23-Jul-17 14:33 33.644443 -118.804612 308 23922ft 411kts
23-Jul-17 14:34 33.715335 -118.906530 309 22080ft 378kts
23-Jul-17 14:35 33.781752 -118.997291 328 18883ft 363kts
23-Jul-17 14:36 33.879879 -119.021268 354 15482ft 370kts
23-Jul-17 14:37 33.981236 -119.034434 354 11938ft 366kts
23-Jul-17 14:38 34.077104 -119.045164 354 9956ft 312kts
23-Jul-17 14:39 34.136389 -119.098935 295 9966ft 252kts
23-Jul-17 14:40 34.167582 -119.172558 295 9968ft 247kts
23-Jul-17 14:41 34.201126 -119.251670 295 10016ft 298kts
23-Jul-17 14:42 34.239667 -119.342682 295 9017ft 281kts
23-Jul-17 14:43 34.270666 -119.416031 295 8988ft 222kts
23-Jul-17 14:44 34.298023 -119.480774 295 8901ft 220kts
23-Jul-17 14:45 34.334862 -119.553744 302 5885ft 270kts
23-Jul-17 14:46 34.373582 -119.622996 302 3990ft 204kts
23-Jul-17 14:47 34.398764 -119.666147 306 3952ft 140kts
23-Jul-17 14:48 34.417240 -119.705529 293 3174ft 139kts
23-Jul-17 14:49 34.429111 -119.748616 281 1994ft 137kts
23-Jul-17 14:50 34.428864 -119.793852 265 835ft 127kts
23-Jul-17 14:51 34.427858 -119.838090 266 29ft 130kts
23-Jul-17 14:52 34.426778 -119.851822 167 19ft 0kts
23-Jul-17 14:53 34.426728 -119.851805 162 19ft 0kts
23-Jul-17 14:54 34.426493 -119.849039 87 20ft 17kts
23-Jul-17 14:55 34.426649 -119.841466 87 19ft 24kts
23-Jul-17 14:56 34.425729 -119.837804 124 19ft 9kts
23-Jul-17 14:57 34.425528 -119.836917 88 20ft 0kts

Navigation Log

Ident Type
Flight plan parsing failed, navigation log unavailable